sensor_id;sensor_type;location;lat;lon;timestamp;P1;durP1;ratioP1;P2;durP2;ratioP2
33254;SDS011;19623;52.482;9.762;2022-11-20T00:00:03;36.92;;;25.70;;
33254;SDS011;19623;52.482;9.762;2022-11-20T00:02:29;41.88;;;27.50;;
33254;SDS011;19623;52.482;9.762;2022-11-20T00:04:55;40.08;;;26.90;;
33254;SDS011;19623;52.482;9.762;2022-11-20T00:07:21;39.15;;;27.23;;
33254;SDS011;19623;52.482;9.762;2022-11-20T00:09:46;37.90;;;27.17;;
33254;SDS011;19623;52.482;9.762;2022-11-20T00:12:12;43.67;;;29.08;;
33254;SDS011;19623;52.482;9.762;2022-11-20T00:14:38;35.05;;;24.77;;
33254;SDS011;19623;52.482;9.762;2022-11-20T00:17:04;44.25;;;29.30;;
33254;SDS011;19623;52.482;9.762;2022-11-20T00:19:29;38.65;;;26.02;;
33254;SDS011;19623;52.482;9.762;2022-11-20T00:21:55;39.95;;;25.90;;
33254;SDS011;19623;52.482;9.762;2022-11-20T00:24:20;44.63;;;29.95;;
33254;SDS011;19623;52.482;9.762;2022-11-20T00:26:46;44.83;;;29.02;;
33254;SDS011;19623;52.482;9.762;2022-11-20T00:29:12;47.03;;;31.35;;
33254;SDS011;19623;52.482;9.762;2022-11-20T00:31:38;48.10;;;32.85;;
33254;SDS011;19623;52.482;9.762;2022-11-20T00:34:03;45.63;;;30.25;;
33254;SDS011;19623;52.482;9.762;2022-11-20T00:36:31;38.10;;;26.23;;
33254;SDS011;19623;52.482;9.762;2022-11-20T00:38:58;42.08;;;29.35;;
33254;SDS011;19623;52.482;9.762;2022-11-20T00:41:25;44.25;;;30.67;;
33254;SDS011;19623;52.482;9.762;2022-11-20T00:43:52;46.45;;;32.58;;
33254;SDS011;19623;52.482;9.762;2022-11-20T00:46:19;39.72;;;27.23;;
33254;SDS011;19623;52.482;9.762;2022-11-20T00:48:47;46.15;;;31.90;;
33254;SDS011;19623;52.482;9.762;2022-11-20T00:51:14;45.42;;;31.88;;
33254;SDS011;19623;52.482;9.762;2022-11-20T00:53:41;41.78;;;29.10;;
33254;SDS011;19623;52.482;9.762;2022-11-20T00:56:09;39.88;;;28.83;;
33254;SDS011;19623;52.482;9.762;2022-11-20T00:58:37;38.03;;;27.20;;
33254;SDS011;19623;52.482;9.762;2022-11-20T01:01:12;34.85;;;25.10;;
33254;SDS011;19623;52.482;9.762;2022-11-20T01:03:41;44.85;;;32.85;;
33254;SDS011;19623;52.482;9.762;2022-11-20T01:08:48;45.42;;;31.40;;
33254;SDS011;19623;52.482;9.762;2022-11-20T01:11:21;49.30;;;35.05;;
33254;SDS011;19623;52.482;9.762;2022-11-20T01:13:50;42.78;;;30.58;;
33254;SDS011;19623;52.482;9.762;2022-11-20T01:18:45;63.28;;;43.13;;
33254;SDS011;19623;52.482;9.762;2022-11-20T01:21:34;61.65;;;43.28;;
33254;SDS011;19623;52.482;9.762;2022-11-20T01:24:00;90.97;;;53.10;;
33254;SDS011;19623;52.482;9.762;2022-11-20T01:26:28;79.30;;;49.65;;
33254;SDS011;19623;52.482;9.762;2022-11-20T01:28:55;71.85;;;48.92;;
33254;SDS011;19623;52.482;9.762;2022-11-20T01:31:23;51.65;;;37.65;;
33254;SDS011;19623;52.482;9.762;2022-11-20T01:33:54;50.22;;;37.00;;
33254;SDS011;19623;52.482;9.762;2022-11-20T01:36:21;47.03;;;34.85;;
33254;SDS011;19623;52.482;9.762;2022-11-20T01:38:52;62.05;;;39.13;;
33254;SDS011;19623;52.482;9.762;2022-11-20T01:41:19;35.00;;;28.70;;
33254;SDS011;19623;52.482;9.762;2022-11-20T01:44:03;91.18;;;53.88;;
33254;SDS011;19623;52.482;9.762;2022-11-20T01:46:30;71.18;;;46.17;;
33254;SDS011;19623;52.482;9.762;2022-11-20T01:49:04;61.47;;;40.47;;
33254;SDS011;19623;52.482;9.762;2022-11-20T01:51:45;69.43;;;43.45;;
33254;SDS011;19623;52.482;9.762;2022-11-20T01:54:18;52.55;;;35.95;;
33254;SDS011;19623;52.482;9.762;2022-11-20T01:56:50;47.78;;;34.17;;
33254;SDS011;19623;52.482;9.762;2022-11-20T01:59:19;68.50;;;45.08;;
33254;SDS011;19623;52.482;9.762;2022-11-20T02:01:46;81.85;;;46.35;;
33254;SDS011;19623;52.482;9.762;2022-11-20T02:04:12;66.78;;;43.03;;
33254;SDS011;19623;52.482;9.762;2022-11-20T02:06:43;56.28;;;39.08;;
33254;SDS011;19623;52.482;9.762;2022-11-20T02:09:31;48.50;;;33.35;;
33254;SDS011;19623;52.482;9.762;2022-11-20T02:11:56;51.13;;;35.30;;
33254;SDS011;19623;52.482;9.762;2022-11-20T02:14:23;49.42;;;33.33;;
33254;SDS011;19623;52.482;9.762;2022-11-20T02:16:50;39.30;;;28.52;;
33254;SDS011;19623;52.482;9.762;2022-11-20T02:19:29;75.85;;;45.92;;
33254;SDS011;19623;52.482;9.762;2022-11-20T02:24:27;60.50;;;40.42;;
33254;SDS011;19623;52.482;9.762;2022-11-20T02:29:25;65.32;;;43.05;;
33254;SDS011;19623;52.482;9.762;2022-11-20T02:31:55;49.38;;;34.95;;
33254;SDS011;19623;52.482;9.762;2022-11-20T02:34:23;43.65;;;31.85;;
33254;SDS011;19623;52.482;9.762;2022-11-20T02:36:49;33.58;;;25.08;;
33254;SDS011;19623;52.482;9.762;2022-11-20T02:39:17;35.75;;;25.80;;
33254;SDS011;19623;52.482;9.762;2022-11-20T02:41:44;44.05;;;32.30;;
33254;SDS011;19623;52.482;9.762;2022-11-20T02:44:09;41.65;;;27.83;;
33254;SDS011;19623;52.482;9.762;2022-11-20T02:46:35;39.40;;;29.05;;
33254;SDS011;19623;52.482;9.762;2022-11-20T02:49:02;40.35;;;29.23;;
33254;SDS011;19623;52.482;9.762;2022-11-20T02:51:28;83.72;;;52.08;;
33254;SDS011;19623;52.482;9.762;2022-11-20T02:53:54;67.32;;;45.28;;
33254;SDS011;19623;52.482;9.762;2022-11-20T02:56:20;53.85;;;38.25;;
33254;SDS011;19623;52.482;9.762;2022-11-20T02:58:46;41.35;;;30.65;;
33254;SDS011;19623;52.482;9.762;2022-11-20T03:01:12;83.22;;;50.88;;
33254;SDS011;19623;52.482;9.762;2022-11-20T03:03:37;61.22;;;43.42;;
33254;SDS011;19623;52.482;9.762;2022-11-20T03:06:03;51.70;;;38.75;;
33254;SDS011;19623;52.482;9.762;2022-11-20T03:08:29;44.88;;;32.95;;
33254;SDS011;19623;52.482;9.762;2022-11-20T03:10:55;37.70;;;28.30;;
33254;SDS011;19623;52.482;9.762;2022-11-20T03:13:20;36.85;;;27.40;;
33254;SDS011;19623;52.482;9.762;2022-11-20T03:15:46;39.53;;;29.23;;
33254;SDS011;19623;52.482;9.762;2022-11-20T03:18:12;42.63;;;31.92;;
33254;SDS011;19623;52.482;9.762;2022-11-20T03:20:38;38.70;;;30.10;;
33254;SDS011;19623;52.482;9.762;2022-11-20T03:23:04;30.25;;;22.98;;
33254;SDS011;19623;52.482;9.762;2022-11-20T03:25:30;38.45;;;28.23;;
33254;SDS011;19623;52.482;9.762;2022-11-20T03:27:55;55.22;;;41.55;;
33254;SDS011;19623;52.482;9.762;2022-11-20T03:30:21;42.42;;;31.75;;
33254;SDS011;19623;52.482;9.762;2022-11-20T03:32:47;41.53;;;31.35;;
33254;SDS011;19623;52.482;9.762;2022-11-20T03:35:13;56.65;;;42.70;;
33254;SDS011;19623;52.482;9.762;2022-11-20T03:37:38;48.88;;;37.35;;
33254;SDS011;19623;52.482;9.762;2022-11-20T03:40:04;38.30;;;26.48;;
33254;SDS011;19623;52.482;9.762;2022-11-20T03:42:30;34.92;;;25.42;;
33254;SDS011;19623;52.482;9.762;2022-11-20T03:45:12;36.13;;;28.17;;
33254;SDS011;19623;52.482;9.762;2022-11-20T03:47:39;36.80;;;28.75;;
33254;SDS011;19623;52.482;9.762;2022-11-20T03:50:05;38.47;;;28.92;;
33254;SDS011;19623;52.482;9.762;2022-11-20T03:52:31;40.30;;;29.77;;
33254;SDS011;19623;52.482;9.762;2022-11-20T03:54:57;36.90;;;27.88;;
33254;SDS011;19623;52.482;9.762;2022-11-20T03:57:22;38.58;;;27.13;;
33254;SDS011;19623;52.482;9.762;2022-11-20T03:59:48;36.65;;;28.98;;
33254;SDS011;19623;52.482;9.762;2022-11-20T04:02:13;35.40;;;26.00;;
33254;SDS011;19623;52.482;9.762;2022-11-20T04:04:39;35.45;;;26.20;;
33254;SDS011;19623;52.482;9.762;2022-11-20T04:07:05;39.60;;;28.95;;
33254;SDS011;19623;52.482;9.762;2022-11-20T04:09:30;35.35;;;26.33;;
33254;SDS011;19623;52.482;9.762;2022-11-20T04:11:56;32.97;;;25.17;;
33254;SDS011;19623;52.482;9.762;2022-11-20T04:14:21;35.20;;;26.33;;
33254;SDS011;19623;52.482;9.762;2022-11-20T04:16:47;37.13;;;26.35;;
33254;SDS011;19623;52.482;9.762;2022-11-20T04:19:14;33.33;;;25.63;;
33254;SDS011;19623;52.482;9.762;2022-11-20T04:21:41;33.80;;;26.00;;
33254;SDS011;19623;52.482;9.762;2022-11-20T04:24:07;34.30;;;25.27;;
33254;SDS011;19623;52.482;9.762;2022-11-20T04:26:35;33.10;;;23.33;;
33254;SDS011;19623;52.482;9.762;2022-11-20T04:29:00;35.55;;;26.52;;
33254;SDS011;19623;52.482;9.762;2022-11-20T04:31:28;34.25;;;25.33;;
33254;SDS011;19623;52.482;9.762;2022-11-20T04:33:59;32.92;;;25.77;;
33254;SDS011;19623;52.482;9.762;2022-11-20T04:36:26;27.15;;;21.10;;
33254;SDS011;19623;52.482;9.762;2022-11-20T04:38:54;33.42;;;27.02;;
33254;SDS011;19623;52.482;9.762;2022-11-20T04:41:25;30.13;;;24.23;;
33254;SDS011;19623;52.482;9.762;2022-11-20T04:43:53;30.08;;;23.30;;
33254;SDS011;19623;52.482;9.762;2022-11-20T04:46:28;28.38;;;21.75;;
33254;SDS011;19623;52.482;9.762;2022-11-20T04:48:58;27.05;;;22.90;;
33254;SDS011;19623;52.482;9.762;2022-11-20T04:51:24;29.00;;;22.50;;
33254;SDS011;19623;52.482;9.762;2022-11-20T04:53:51;36.13;;;26.35;;
33254;SDS011;19623;52.482;9.762;2022-11-20T04:56:16;33.42;;;23.92;;
33254;SDS011;19623;52.482;9.762;2022-11-20T04:58:42;31.40;;;24.90;;
33254;SDS011;19623;52.482;9.762;2022-11-20T05:01:12;29.02;;;23.38;;
33254;SDS011;19623;52.482;9.762;2022-11-20T05:03:45;30.67;;;23.70;;
33254;SDS011;19623;52.482;9.762;2022-11-20T05:06:12;33.78;;;24.73;;
33254;SDS011;19623;52.482;9.762;2022-11-20T05:08:40;35.45;;;26.48;;
33254;SDS011;19623;52.482;9.762;2022-11-20T05:11:09;35.78;;;27.67;;
33254;SDS011;19623;52.482;9.762;2022-11-20T05:13:40;34.42;;;26.55;;
33254;SDS011;19623;52.482;9.762;2022-11-20T05:16:07;28.05;;;21.92;;
33254;SDS011;19623;52.482;9.762;2022-11-20T05:18:36;32.85;;;23.70;;
33254;SDS011;19623;52.482;9.762;2022-11-20T05:21:02;32.03;;;23.90;;
33254;SDS011;19623;52.482;9.762;2022-11-20T05:23:28;34.58;;;26.92;;
33254;SDS011;19623;52.482;9.762;2022-11-20T05:25:56;25.75;;;21.98;;
33254;SDS011;19623;52.482;9.762;2022-11-20T05:28:22;28.95;;;23.23;;
33254;SDS011;19623;52.482;9.762;2022-11-20T05:30:48;29.52;;;22.85;;
33254;SDS011;19623;52.482;9.762;2022-11-20T05:33:15;27.45;;;22.35;;
33254;SDS011;19623;52.482;9.762;2022-11-20T05:35:40;30.70;;;24.55;;
33254;SDS011;19623;52.482;9.762;2022-11-20T05:38:06;36.08;;;30.85;;
33254;SDS011;19623;52.482;9.762;2022-11-20T05:40:32;32.95;;;25.85;;
33254;SDS011;19623;52.482;9.762;2022-11-20T05:42:58;32.92;;;24.27;;
33254;SDS011;19623;52.482;9.762;2022-11-20T05:45:24;24.42;;;19.48;;
33254;SDS011;19623;52.482;9.762;2022-11-20T05:47:50;31.67;;;25.40;;
33254;SDS011;19623;52.482;9.762;2022-11-20T05:50:16;34.13;;;26.88;;
33254;SDS011;19623;52.482;9.762;2022-11-20T05:52:42;26.80;;;22.17;;
33254;SDS011;19623;52.482;9.762;2022-11-20T05:55:08;33.28;;;24.83;;
33254;SDS011;19623;52.482;9.762;2022-11-20T05:57:34;31.90;;;27.17;;
33254;SDS011;19623;52.482;9.762;2022-11-20T06:00:00;46.13;;;38.63;;
33254;SDS011;19623;52.482;9.762;2022-11-20T06:02:25;33.70;;;28.02;;
33254;SDS011;19623;52.482;9.762;2022-11-20T06:04:51;35.28;;;26.65;;
33254;SDS011;19623;52.482;9.762;2022-11-20T06:07:17;29.67;;;24.20;;
33254;SDS011;19623;52.482;9.762;2022-11-20T06:09:43;29.92;;;24.70;;
33254;SDS011;19623;52.482;9.762;2022-11-20T06:12:08;29.15;;;23.60;;
33254;SDS011;19623;52.482;9.762;2022-11-20T06:14:34;31.10;;;24.30;;
33254;SDS011;19623;52.482;9.762;2022-11-20T06:16:59;28.77;;;22.50;;
33254;SDS011;19623;52.482;9.762;2022-11-20T06:19:25;25.75;;;21.75;;
33254;SDS011;19623;52.482;9.762;2022-11-20T06:21:51;30.20;;;22.83;;
33254;SDS011;19623;52.482;9.762;2022-11-20T06:24:17;32.70;;;23.65;;
33254;SDS011;19623;52.482;9.762;2022-11-20T06:26:43;33.03;;;26.10;;
33254;SDS011;19623;52.482;9.762;2022-11-20T06:29:09;30.75;;;25.40;;
33254;SDS011;19623;52.482;9.762;2022-11-20T06:31:35;32.65;;;27.98;;
33254;SDS011;19623;52.482;9.762;2022-11-20T06:34:05;25.83;;;22.00;;
33254;SDS011;19623;52.482;9.762;2022-11-20T06:36:32;28.73;;;23.85;;
33254;SDS011;19623;52.482;9.762;2022-11-20T06:38:58;26.85;;;22.08;;
33254;SDS011;19623;52.482;9.762;2022-11-20T06:41:25;26.30;;;21.60;;
33254;SDS011;19623;52.482;9.762;2022-11-20T06:43:51;26.73;;;21.55;;
33254;SDS011;19623;52.482;9.762;2022-11-20T06:46:17;34.30;;;27.17;;
33254;SDS011;19623;52.482;9.762;2022-11-20T06:48:43;30.60;;;25.08;;
33254;SDS011;19623;52.482;9.762;2022-11-20T06:51:09;36.17;;;26.50;;
33254;SDS011;19623;52.482;9.762;2022-11-20T06:53:35;31.85;;;24.30;;
33254;SDS011;19623;52.482;9.762;2022-11-20T06:56:01;26.33;;;20.70;;
33254;SDS011;19623;52.482;9.762;2022-11-20T06:58:28;29.27;;;23.15;;
33254;SDS011;19623;52.482;9.762;2022-11-20T07:00:58;38.42;;;32.60;;
33254;SDS011;19623;52.482;9.762;2022-11-20T07:03:24;29.05;;;23.25;;
33254;SDS011;19623;52.482;9.762;2022-11-20T07:05:50;35.50;;;27.55;;
33254;SDS011;19623;52.482;9.762;2022-11-20T07:08:16;26.65;;;20.55;;
33254;SDS011;19623;52.482;9.762;2022-11-20T07:10:42;28.00;;;21.70;;
33254;SDS011;19623;52.482;9.762;2022-11-20T07:13:07;36.72;;;29.20;;
33254;SDS011;19623;52.482;9.762;2022-11-20T07:15:33;35.58;;;28.80;;
33254;SDS011;19623;52.482;9.762;2022-11-20T07:17:59;28.98;;;23.50;;
33254;SDS011;19623;52.482;9.762;2022-11-20T07:20:25;28.00;;;23.52;;
33254;SDS011;19623;52.482;9.762;2022-11-20T07:22:54;29.65;;;22.73;;
33254;SDS011;19623;52.482;9.762;2022-11-20T07:25:21;26.48;;;21.90;;
33254;SDS011;19623;52.482;9.762;2022-11-20T07:27:47;27.45;;;23.48;;
33254;SDS011;19623;52.482;9.762;2022-11-20T07:30:14;29.20;;;23.13;;
33254;SDS011;19623;52.482;9.762;2022-11-20T07:32:45;29.55;;;24.23;;
33254;SDS011;19623;52.482;9.762;2022-11-20T07:35:12;31.20;;;24.17;;
33254;SDS011;19623;52.482;9.762;2022-11-20T07:37:38;31.85;;;25.70;;
33254;SDS011;19623;52.482;9.762;2022-11-20T07:40:04;31.98;;;24.88;;
33254;SDS011;19623;52.482;9.762;2022-11-20T07:42:30;39.95;;;32.70;;
33254;SDS011;19623;52.482;9.762;2022-11-20T07:44:56;35.22;;;30.20;;
33254;SDS011;19623;52.482;9.762;2022-11-20T07:47:21;30.90;;;26.00;;
33254;SDS011;19623;52.482;9.762;2022-11-20T07:49:47;36.28;;;29.88;;
33254;SDS011;19623;52.482;9.762;2022-11-20T07:52:13;37.65;;;28.42;;
33254;SDS011;19623;52.482;9.762;2022-11-20T07:54:38;33.55;;;28.88;;
33254;SDS011;19623;52.482;9.762;2022-11-20T07:57:04;27.00;;;21.90;;
33254;SDS011;19623;52.482;9.762;2022-11-20T07:59:30;24.10;;;19.80;;
33254;SDS011;19623;52.482;9.762;2022-11-20T08:01:55;31.58;;;26.50;;
33254;SDS011;19623;52.482;9.762;2022-11-20T08:04:21;31.05;;;23.30;;
33254;SDS011;19623;52.482;9.762;2022-11-20T08:06:48;25.50;;;21.58;;
33254;SDS011;19623;52.482;9.762;2022-11-20T08:09:14;30.23;;;26.58;;
33254;SDS011;19623;52.482;9.762;2022-11-20T08:11:39;27.38;;;23.77;;
33254;SDS011;19623;52.482;9.762;2022-11-20T08:14:23;29.95;;;21.90;;
33254;SDS011;19623;52.482;9.762;2022-11-20T08:16:49;27.55;;;21.17;;
33254;SDS011;19623;52.482;9.762;2022-11-20T08:19:16;24.70;;;21.15;;
33254;SDS011;19623;52.482;9.762;2022-11-20T08:21:43;26.05;;;22.08;;
33254;SDS011;19623;52.482;9.762;2022-11-20T08:24:09;32.00;;;27.15;;
33254;SDS011;19623;52.482;9.762;2022-11-20T08:26:35;32.08;;;24.13;;
33254;SDS011;19623;52.482;9.762;2022-11-20T08:29:04;27.52;;;21.40;;
33254;SDS011;19623;52.482;9.762;2022-11-20T08:31:30;27.42;;;19.67;;
33254;SDS011;19623;52.482;9.762;2022-11-20T08:33:56;25.10;;;21.33;;
33254;SDS011;19623;52.482;9.762;2022-11-20T08:36:23;26.90;;;21.52;;
33254;SDS011;19623;52.482;9.762;2022-11-20T08:38:50;28.77;;;22.83;;
33254;SDS011;19623;52.482;9.762;2022-11-20T08:41:17;36.03;;;24.73;;
33254;SDS011;19623;52.482;9.762;2022-11-20T08:43:49;24.95;;;19.42;;
33254;SDS011;19623;52.482;9.762;2022-11-20T08:46:16;27.98;;;22.60;;
33254;SDS011;19623;52.482;9.762;2022-11-20T08:48:42;22.40;;;17.80;;
33254;SDS011;19623;52.482;9.762;2022-11-20T08:51:08;28.30;;;21.27;;
33254;SDS011;19623;52.482;9.762;2022-11-20T08:53:35;22.00;;;18.40;;
33254;SDS011;19623;52.482;9.762;2022-11-20T08:56:02;27.58;;;21.48;;
33254;SDS011;19623;52.482;9.762;2022-11-20T08:58:28;24.13;;;19.77;;
33254;SDS011;19623;52.482;9.762;2022-11-20T09:00:53;25.95;;;19.63;;
33254;SDS011;19623;52.482;9.762;2022-11-20T09:03:19;25.38;;;19.77;;
33254;SDS011;19623;52.482;9.762;2022-11-20T09:05:45;22.95;;;17.92;;
33254;SDS011;19623;52.482;9.762;2022-11-20T09:08:12;24.52;;;18.60;;
33254;SDS011;19623;52.482;9.762;2022-11-20T09:10:38;23.52;;;19.77;;
33254;SDS011;19623;52.482;9.762;2022-11-20T09:13:06;30.65;;;23.10;;
33254;SDS011;19623;52.482;9.762;2022-11-20T09:15:32;53.90;;;36.30;;
33254;SDS011;19623;52.482;9.762;2022-11-20T09:17:59;25.75;;;19.92;;
33254;SDS011;19623;52.482;9.762;2022-11-20T09:20:27;26.77;;;21.77;;
33254;SDS011;19623;52.482;9.762;2022-11-20T09:22:54;25.92;;;18.05;;
33254;SDS011;19623;52.482;9.762;2022-11-20T09:25:21;23.23;;;19.15;;
33254;SDS011;19623;52.482;9.762;2022-11-20T09:27:47;25.40;;;21.65;;
33254;SDS011;19623;52.482;9.762;2022-11-20T09:30:13;25.55;;;20.35;;
33254;SDS011;19623;52.482;9.762;2022-11-20T09:32:40;20.30;;;17.00;;
33254;SDS011;19623;52.482;9.762;2022-11-20T09:35:06;24.30;;;21.05;;
33254;SDS011;19623;52.482;9.762;2022-11-20T09:37:32;25.58;;;21.25;;
33254;SDS011;19623;52.482;9.762;2022-11-20T09:39:57;24.85;;;21.48;;
33254;SDS011;19623;52.482;9.762;2022-11-20T09:56:21;29.20;;;23.27;;
33254;SDS011;19623;52.482;9.762;2022-11-20T09:58:50;32.58;;;26.38;;
33254;SDS011;19623;52.482;9.762;2022-11-20T10:01:18;25.80;;;21.70;;
33254;SDS011;19623;52.482;9.762;2022-11-20T10:04:19;27.25;;;22.63;;
33254;SDS011;19623;52.482;9.762;2022-11-20T10:09:32;28.30;;;22.13;;
33254;SDS011;19623;52.482;9.762;2022-11-20T10:12:19;25.30;;;21.88;;
33254;SDS011;19623;52.482;9.762;2022-11-20T10:21:00;22.00;;;19.00;;
33254;SDS011;19623;52.482;9.762;2022-11-20T10:23:48;29.50;;;24.05;;
33254;SDS011;19623;52.482;9.762;2022-11-20T10:29:14;30.63;;;27.35;;
33254;SDS011;19623;52.482;9.762;2022-11-20T10:31:43;23.45;;;19.75;;
33254;SDS011;19623;52.482;9.762;2022-11-20T10:34:20;23.17;;;20.77;;
33254;SDS011;19623;52.482;9.762;2022-11-20T10:36:49;27.65;;;22.85;;
33254;SDS011;19623;52.482;9.762;2022-11-20T10:39:45;20.92;;;17.60;;
33254;SDS011;19623;52.482;9.762;2022-11-20T10:42:19;28.55;;;24.15;;
33254;SDS011;19623;52.482;9.762;2022-11-20T10:47:51;22.52;;;19.15;;
33254;SDS011;19623;52.482;9.762;2022-11-20T10:50:26;27.77;;;22.38;;
33254;SDS011;19623;52.482;9.762;2022-11-20T10:53:02;23.85;;;20.60;;
33254;SDS011;19623;52.482;9.762;2022-11-20T10:58:21;23.55;;;20.60;;
33254;SDS011;19623;52.482;9.762;2022-11-20T11:00:51;25.38;;;22.08;;
33254;SDS011;19623;52.482;9.762;2022-11-20T11:03:27;27.55;;;23.08;;
33254;SDS011;19623;52.482;9.762;2022-11-20T11:08:32;27.05;;;23.83;;
33254;SDS011;19623;52.482;9.762;2022-11-20T11:11:23;33.80;;;27.73;;
33254;SDS011;19623;52.482;9.762;2022-11-20T11:14:09;22.02;;;19.25;;
33254;SDS011;19623;52.482;9.762;2022-11-20T11:16:48;24.38;;;19.45;;
33254;SDS011;19623;52.482;9.762;2022-11-20T11:19:16;23.35;;;19.90;;
33254;SDS011;19623;52.482;9.762;2022-11-20T11:21:48;26.80;;;21.70;;
33254;SDS011;19623;52.482;9.762;2022-11-20T11:24:20;32.83;;;29.33;;
33254;SDS011;19623;52.482;9.762;2022-11-20T11:26:57;25.70;;;21.30;;
33254;SDS011;19623;52.482;9.762;2022-11-20T11:29:29;26.23;;;22.15;;
33254;SDS011;19623;52.482;9.762;2022-11-20T11:34:31;27.88;;;20.85;;
33254;SDS011;19623;52.482;9.762;2022-11-20T11:36:57;25.73;;;19.75;;
33254;SDS011;19623;52.482;9.762;2022-11-20T11:39:24;24.83;;;21.27;;
33254;SDS011;19623;52.482;9.762;2022-11-20T11:41:52;31.20;;;24.63;;
33254;SDS011;19623;52.482;9.762;2022-11-20T11:44:19;22.70;;;18.63;;
33254;SDS011;19623;52.482;9.762;2022-11-20T11:47:10;22.52;;;20.10;;
33254;SDS011;19623;52.482;9.762;2022-11-20T11:49:44;25.27;;;19.70;;
33254;SDS011;19623;52.482;9.762;2022-11-20T11:52:12;23.65;;;18.30;;
33254;SDS011;19623;52.482;9.762;2022-11-20T11:54:55;26.17;;;20.50;;
33254;SDS011;19623;52.482;9.762;2022-11-20T11:59:59;23.58;;;20.83;;
33254;SDS011;19623;52.482;9.762;2022-11-20T12:11:20;28.58;;;21.10;;
33254;SDS011;19623;52.482;9.762;2022-11-20T12:14:15;23.50;;;19.38;;
33254;SDS011;19623;52.482;9.762;2022-11-20T12:16:56;46.45;;;28.55;;
33254;SDS011;19623;52.482;9.762;2022-11-20T12:19:22;51.38;;;28.45;;
33254;SDS011;19623;52.482;9.762;2022-11-20T12:30:09;27.30;;;21.67;;
33254;SDS011;19623;52.482;9.762;2022-11-20T13:00:23;39.33;;;34.22;;
33254;SDS011;19623;52.482;9.762;2022-11-20T13:05:50;28.83;;;24.83;;
33254;SDS011;19623;52.482;9.762;2022-11-20T13:08:39;25.13;;;18.48;;
33254;SDS011;19623;52.482;9.762;2022-11-20T13:17:18;41.20;;;35.78;;
33254;SDS011;19623;52.482;9.762;2022-11-20T13:19:52;34.20;;;29.67;;
33254;SDS011;19623;52.482;9.762;2022-11-20T13:25:10;22.90;;;17.95;;
33254;SDS011;19623;52.482;9.762;2022-11-20T13:27:55;23.67;;;18.63;;
33254;SDS011;19623;52.482;9.762;2022-11-20T13:30:24;21.27;;;17.73;;
33254;SDS011;19623;52.482;9.762;2022-11-20T13:32:54;18.63;;;14.88;;
33254;SDS011;19623;52.482;9.762;2022-11-20T13:35:33;22.55;;;17.25;;
33254;SDS011;19623;52.482;9.762;2022-11-20T13:38:06;20.27;;;16.88;;
33254;SDS011;19623;52.482;9.762;2022-11-20T13:40:52;19.52;;;17.08;;
33254;SDS011;19623;52.482;9.762;2022-11-20T13:43:44;21.85;;;17.05;;
33254;SDS011;19623;52.482;9.762;2022-11-20T13:46:09;23.23;;;18.58;;
33254;SDS011;19623;52.482;9.762;2022-11-20T13:48:42;23.27;;;19.80;;
33254;SDS011;19623;52.482;9.762;2022-11-20T13:51:34;25.63;;;19.10;;
33254;SDS011;19623;52.482;9.762;2022-11-20T14:00:01;18.65;;;14.63;;
33254;SDS011;19623;52.482;9.762;2022-11-20T14:02:38;19.50;;;15.90;;
33254;SDS011;19623;52.482;9.762;2022-11-20T14:05:05;17.17;;;14.27;;
33254;SDS011;19623;52.482;9.762;2022-11-20T14:07:39;22.20;;;18.08;;
33254;SDS011;19623;52.482;9.762;2022-11-20T14:10:27;17.67;;;14.48;;
33254;SDS011;19623;52.482;9.762;2022-11-20T14:12:53;19.45;;;16.55;;
33254;SDS011;19623;52.482;9.762;2022-11-20T14:15:26;22.00;;;17.40;;
33254;SDS011;19623;52.482;9.762;2022-11-20T14:17:57;20.95;;;16.52;;
33254;SDS011;19623;52.482;9.762;2022-11-20T14:20:24;18.20;;;14.77;;
33254;SDS011;19623;52.482;9.762;2022-11-20T14:22:53;22.67;;;18.98;;
33254;SDS011;19623;52.482;9.762;2022-11-20T14:25:21;20.30;;;16.55;;
33254;SDS011;19623;52.482;9.762;2022-11-20T14:27:50;23.23;;;18.40;;
33254;SDS011;19623;52.482;9.762;2022-11-20T14:30:19;17.70;;;13.50;;
33254;SDS011;19623;52.482;9.762;2022-11-20T14:32:47;20.27;;;16.45;;
33254;SDS011;19623;52.482;9.762;2022-11-20T14:35:23;20.73;;;15.57;;
33254;SDS011;19623;52.482;9.762;2022-11-20T14:37:50;22.50;;;18.60;;
33254;SDS011;19623;52.482;9.762;2022-11-20T14:42:52;21.88;;;15.88;;
33254;SDS011;19623;52.482;9.762;2022-11-20T14:45:17;22.48;;;16.20;;
33254;SDS011;19623;52.482;9.762;2022-11-20T14:47:44;20.98;;;17.00;;
33254;SDS011;19623;52.482;9.762;2022-11-20T14:50:21;25.58;;;19.70;;
33254;SDS011;19623;52.482;9.762;2022-11-20T14:52:59;29.15;;;23.98;;
33254;SDS011;19623;52.482;9.762;2022-11-20T14:55:33;37.42;;;31.88;;
33254;SDS011;19623;52.482;9.762;2022-11-20T14:58:02;41.20;;;32.42;;
33254;SDS011;19623;52.482;9.762;2022-11-20T15:00:30;36.53;;;29.80;;
33254;SDS011;19623;52.482;9.762;2022-11-20T15:02:58;27.95;;;23.02;;
33254;SDS011;19623;52.482;9.762;2022-11-20T15:05:25;24.52;;;19.45;;
33254;SDS011;19623;52.482;9.762;2022-11-20T15:08:10;25.70;;;20.67;;
33254;SDS011;19623;52.482;9.762;2022-11-20T15:10:37;37.00;;;21.50;;
33254;SDS011;19623;52.482;9.762;2022-11-20T15:13:11;46.47;;;25.77;;
33254;SDS011;19623;52.482;9.762;2022-11-20T15:18:16;38.72;;;20.30;;
33254;SDS011;19623;52.482;9.762;2022-11-20T15:23:13;24.90;;;18.08;;
33254;SDS011;19623;52.482;9.762;2022-11-20T15:25:46;45.85;;;21.30;;
33254;SDS011;19623;52.482;9.762;2022-11-20T15:28:16;58.38;;;26.52;;
33254;SDS011;19623;52.482;9.762;2022-11-20T15:30:42;40.92;;;23.17;;
33254;SDS011;19623;52.482;9.762;2022-11-20T15:33:08;61.55;;;27.92;;
33254;SDS011;19623;52.482;9.762;2022-11-20T15:35:35;60.15;;;35.95;;
33254;SDS011;19623;52.482;9.762;2022-11-20T15:38:01;42.47;;;26.67;;
33254;SDS011;19623;52.482;9.762;2022-11-20T15:40:26;53.53;;;32.75;;
33254;SDS011;19623;52.482;9.762;2022-11-20T15:42:52;41.03;;;26.55;;
33254;SDS011;19623;52.482;9.762;2022-11-20T15:48:11;30.50;;;17.75;;
33254;SDS011;19623;52.482;9.762;2022-11-20T15:50:46;28.98;;;18.10;;
33254;SDS011;19623;52.482;9.762;2022-11-20T15:53:14;36.47;;;24.90;;
33254;SDS011;19623;52.482;9.762;2022-11-20T15:55:40;33.72;;;24.58;;
33254;SDS011;19623;52.482;9.762;2022-11-20T15:58:09;29.17;;;18.23;;
33254;SDS011;19623;52.482;9.762;2022-11-20T16:03:02;24.92;;;17.73;;
33254;SDS011;19623;52.482;9.762;2022-11-20T16:05:28;33.70;;;20.23;;
33254;SDS011;19623;52.482;9.762;2022-11-20T16:07:54;28.25;;;18.33;;
33254;SDS011;19623;52.482;9.762;2022-11-20T16:10:21;31.25;;;19.83;;
33254;SDS011;19623;52.482;9.762;2022-11-20T16:12:47;39.47;;;29.08;;
33254;SDS011;19623;52.482;9.762;2022-11-20T16:15:31;45.28;;;34.80;;
33254;SDS011;19623;52.482;9.762;2022-11-20T16:18:16;41.75;;;31.27;;
33254;SDS011;19623;52.482;9.762;2022-11-20T16:20:45;31.33;;;24.77;;
33254;SDS011;19623;52.482;9.762;2022-11-20T16:23:21;29.58;;;23.05;;
33254;SDS011;19623;52.482;9.762;2022-11-20T16:25:47;25.98;;;18.40;;
33254;SDS011;19623;52.482;9.762;2022-11-20T16:28:14;48.40;;;27.23;;
33254;SDS011;19623;52.482;9.762;2022-11-20T16:30:40;40.58;;;27.17;;
33254;SDS011;19623;52.482;9.762;2022-11-20T16:33:10;33.92;;;23.33;;
33254;SDS011;19623;52.482;9.762;2022-11-20T16:35:38;24.15;;;16.35;;